createdAt,value
2018-07-23T09:40:27.648Z,15.30
2018-07-23T09:42:57.073Z,14.00
2018-07-23T09:45:27.554Z,12.07
2018-07-23T09:47:57.077Z,17.77
2018-07-23T09:50:26.577Z,16.67
2018-07-23T09:52:56.039Z,15.03
2018-07-23T09:55:25.718Z,14.43
2018-07-23T09:57:55.173Z,19.43
2018-07-23T10:00:29.412Z,29.10
2018-07-23T10:02:59.930Z,19.00
2018-07-23T10:05:29.992Z,19.30
2018-07-23T10:08:00.985Z,24.83
2018-07-23T10:10:31.867Z,21.47
2018-07-23T10:13:02.351Z,21.20
2018-07-23T10:15:31.739Z,28.23
2018-07-23T10:18:00.842Z,21.67
2018-07-23T10:20:30.456Z,21.37
2018-07-23T10:22:59.696Z,14.23
2018-07-23T10:25:29.098Z,18.10
2018-07-23T10:27:58.398Z,21.67
2018-07-23T10:30:27.595Z,18.70
2018-07-23T10:32:57.509Z,17.17
2018-07-23T10:35:27.116Z,15.37
2018-07-23T10:37:56.722Z,15.23
2018-07-23T10:40:26.107Z,13.60
2018-07-23T10:42:55.041Z,22.50
2018-07-23T10:45:23.866Z,25.03
2018-07-23T10:47:52.897Z,15.67
2018-07-23T10:50:21.644Z,16.00
2018-07-23T10:52:51.394Z,16.00
2018-07-23T10:55:20.795Z,14.63
2018-07-23T10:57:49.603Z,14.07
2018-07-23T11:00:19.429Z,33.53
2018-07-23T11:02:48.492Z,16.13
2018-07-23T11:05:17.260Z,16.60
2018-07-23T11:07:46.017Z,15.10
2018-07-23T11:10:14.681Z,10.40
2018-07-23T11:12:43.693Z,20.23
2018-07-23T11:15:12.588Z,27.40
2018-07-23T11:17:41.455Z,18.97
2018-07-23T11:20:11.692Z,13.60
2018-07-23T11:22:41.755Z,19.83
2018-07-23T11:25:38.811Z,15.80
2018-07-23T11:27:39.637Z,13.90
2018-07-23T11:30:08.652Z,11.70
2018-07-23T11:32:38.370Z,17.00
2018-07-23T11:35:07.440Z,16.37
2018-07-23T11:37:36.637Z,15.60
2018-07-23T11:40:05.716Z,18.97
2018-07-23T11:42:34.737Z,10.53
2018-07-23T11:45:04.302Z,12.00
2018-07-23T11:47:33.308Z,16.20
2018-07-23T11:50:02.931Z,12.13
2018-07-23T11:52:31.755Z,11.37
2018-07-23T11:55:01.198Z,9.17
2018-07-23T11:57:30.011Z,16.23
2018-07-23T11:59:58.778Z,13.80
2018-07-23T12:02:28.507Z,15.20
2018-07-23T12:04:58.323Z,19.37
2018-07-23T12:07:27.925Z,14.70
2018-07-23T12:09:56.917Z,9.20
2018-07-23T12:12:26.422Z,6.17
2018-07-23T12:14:55.162Z,31.50
2018-07-23T12:17:24.205Z,8.60
2018-07-23T12:19:52.794Z,14.30
2018-07-23T12:22:22.209Z,9.50
2018-07-23T12:24:50.972Z,7.93
2018-07-23T12:27:19.890Z,7.60
2018-07-23T12:29:49.211Z,17.40
2018-07-23T12:32:18.129Z,9.90
2018-07-23T12:34:46.634Z,7.23
2018-07-23T12:37:15.840Z,5.40
2018-07-23T12:39:45.170Z,10.80
2018-07-23T12:42:14.528Z,13.27
2018-07-23T12:44:44.246Z,11.30
2018-07-23T12:47:13.903Z,6.50
2018-07-23T12:49:43.459Z,11.60
2018-07-23T12:52:13.223Z,6.27
2018-07-23T12:54:42.877Z,9.43
2018-07-23T12:57:12.279Z,10.07
2018-07-23T12:59:41.425Z,5.97
2018-07-23T13:02:10.757Z,7.00
2018-07-23T13:04:40.244Z,9.53
2018-07-23T13:07:09.682Z,20.00
2018-07-23T13:09:39.187Z,4.67
2018-07-23T13:12:09.089Z,8.13
2018-07-23T13:14:38.400Z,6.63
2018-07-23T13:17:08.008Z,6.00
2018-07-23T13:19:37.408Z,6.77
2018-07-23T13:22:06.914Z,6.20
2018-07-23T13:24:36.315Z,4.50
2018-07-23T13:27:06.013Z,6.80
2018-07-23T13:29:35.528Z,12.03
2018-07-23T13:32:04.829Z,3.63
2018-07-23T13:34:34.026Z,9.40
2018-07-23T13:37:03.325Z,3.67
2018-07-23T13:39:32.833Z,7.90
2018-07-23T13:42:02.620Z,5.73
2018-07-23T13:44:33.378Z,7.60
2018-07-23T13:47:05.029Z,9.07
2018-07-23T13:49:35.455Z,10.43
2018-07-23T13:52:05.809Z,7.10
2018-07-23T13:54:36.720Z,6.40
2018-07-23T13:57:07.861Z,4.93
2018-07-23T13:59:38.595Z,10.13
2018-07-23T14:02:09.328Z,11.60
2018-07-23T14:04:40.571Z,9.33
2018-07-23T14:07:10.654Z,8.23
2018-07-23T14:09:40.192Z,12.47
2018-07-23T14:12:10.606Z,12.10
2018-07-23T14:14:40.534Z,12.30
2018-07-23T14:17:10.039Z,9.57
2018-07-23T14:19:39.646Z,5.43
2018-07-23T14:22:08.586Z,3.30
2018-07-23T14:24:37.821Z,3.73
2018-07-23T14:27:07.305Z,5.47
2018-07-23T14:29:35.899Z,4.80
2018-07-23T14:32:04.870Z,5.00
2018-07-23T14:34:33.653Z,17.20
2018-07-23T14:37:03.411Z,7.17
2018-07-23T14:39:33.143Z,7.53
2018-07-23T14:42:03.342Z,3.73
2018-07-23T14:44:33.051Z,4.87
2018-07-23T14:47:02.556Z,7.47
2018-07-23T14:49:32.471Z,12.40
2018-07-23T14:52:01.974Z,6.53
2018-07-23T14:54:31.581Z,5.63
2018-07-23T14:57:01.084Z,3.67
2018-07-23T14:59:30.385Z,3.80
2018-07-23T15:01:59.845Z,3.87
2018-07-23T15:04:29.394Z,6.93
2018-07-23T15:06:58.976Z,6.80
2018-07-23T15:09:28.813Z,5.57
2018-07-23T15:11:58.377Z,9.63
2018-07-23T15:14:27.924Z,10.07
2018-07-23T15:16:57.325Z,5.13
2018-07-23T15:19:27.023Z,4.23
2018-07-23T15:21:56.884Z,5.10
2018-07-23T15:24:26.597Z,9.43
2018-07-23T15:26:55.958Z,7.67
2018-07-23T15:29:25.875Z,4.50
2018-07-23T15:31:55.740Z,4.90
2018-07-23T15:34:25.495Z,6.03
2018-07-23T15:36:55.308Z,15.90
2018-07-23T15:39:25.242Z,3.80
2018-07-23T15:41:55.188Z,3.03
2018-07-23T15:44:24.556Z,6.40
2018-07-23T15:46:54.359Z,4.17
2018-07-23T15:49:23.123Z,3.63
2018-07-23T15:51:51.870Z,3.87
2018-07-23T15:54:21.521Z,12.20
2018-07-23T15:56:50.477Z,4.53
2018-07-23T15:59:19.190Z,5.13
2018-07-23T16:01:47.868Z,4.83
2018-07-23T16:04:16.817Z,8.93
2018-07-23T16:06:45.773Z,4.20
2018-07-23T16:09:15.406Z,4.20
2018-07-23T16:11:44.529Z,3.97
2018-07-23T16:14:13.486Z,3.63
2018-07-23T16:16:42.391Z,4.03
2018-07-23T16:19:11.557Z,9.40
2018-07-23T16:21:40.378Z,5.50
2018-07-23T16:24:09.186Z,8.60
2018-07-23T16:26:38.440Z,5.30
2018-07-23T16:29:07.628Z,6.70
2018-07-23T16:31:36.792Z,7.47
2018-07-23T16:34:05.894Z,5.80
2018-07-23T16:36:35.118Z,4.17
2018-07-23T16:39:05.736Z,5.77
2018-07-23T16:41:34.843Z,4.83
2018-07-23T16:44:03.719Z,8.43
2018-07-23T16:46:32.526Z,6.00
2018-07-23T16:49:02.307Z,11.20
2018-07-23T16:51:32.271Z,4.60
2018-07-23T16:54:01.391Z,7.63
2018-07-23T16:56:31.326Z,4.17
2018-07-23T16:59:00.641Z,6.67
2018-07-23T17:01:29.481Z,5.33
2018-07-23T17:03:58.573Z,3.60
2018-07-23T17:06:27.635Z,6.00
2018-07-23T17:08:56.581Z,5.40
2018-07-23T17:11:26.071Z,6.80
2018-07-23T17:13:54.830Z,8.63
2018-07-23T17:16:23.707Z,9.13
2018-07-23T17:18:52.556Z,4.00
2018-07-23T17:21:21.384Z,4.30
2018-07-23T17:23:50.091Z,4.00
2018-07-23T17:26:18.997Z,4.77
2018-07-23T17:28:48.175Z,4.50
2018-07-23T17:31:17.113Z,12.33
2018-07-23T17:33:46.061Z,7.83
2018-07-23T17:36:15.124Z,6.60
2018-07-23T17:38:44.906Z,3.90
2018-07-23T17:41:13.804Z,3.57
2018-07-23T17:43:42.661Z,6.43
2018-07-23T17:46:11.356Z,3.30
2018-07-23T17:48:40.168Z,3.77
2018-07-23T17:51:08.869Z,5.73
2018-07-23T17:53:37.822Z,5.30
2018-07-23T17:56:06.709Z,9.53
2018-07-23T17:58:35.657Z,4.30
2018-07-23T18:01:04.853Z,5.73
2018-07-23T18:03:33.567Z,6.10
2018-07-23T18:06:02.631Z,5.03
2018-07-23T18:08:31.597Z,14.73
2018-07-23T18:11:00.585Z,6.90
2018-07-23T18:13:30.022Z,4.10
2018-07-23T18:15:59.165Z,4.13
2018-07-23T18:18:28.189Z,7.40
2018-07-23T18:20:57.229Z,10.03
2018-07-23T18:23:26.153Z,4.20
2018-07-23T18:25:55.187Z,3.43
2018-07-23T18:28:24.007Z,7.30
2018-07-23T18:30:53.070Z,11.13
2018-07-23T18:33:21.992Z,9.27
2018-07-23T18:35:51.976Z,7.07
2018-07-23T18:38:21.721Z,4.77
2018-07-23T18:40:51.524Z,14.63
2018-07-23T18:43:21.179Z,6.27
2018-07-23T18:45:51.120Z,8.93
2018-07-23T18:50:30.877Z,21.53
2018-07-23T18:53:00.382Z,7.37
2018-07-23T18:55:29.596Z,17.77
2018-07-23T18:57:59.598Z,8.10
2018-07-23T19:00:29.203Z,6.20
2018-07-23T19:02:59.116Z,4.50
2018-07-23T19:05:29.031Z,9.63
2018-07-23T19:07:59.012Z,7.20
2018-07-23T19:10:28.693Z,14.83
2018-07-23T19:12:58.285Z,7.83
2018-07-23T19:15:28.175Z,7.30
2018-07-23T19:17:57.132Z,12.33
2018-07-23T19:20:26.345Z,13.77
2018-07-23T19:22:54.999Z,6.73
2018-07-23T19:25:23.912Z,12.77
2018-07-23T19:27:52.522Z,18.60
2018-07-23T19:30:21.240Z,9.23
2018-07-23T19:32:49.831Z,11.77
2018-07-23T19:35:18.374Z,13.63
2018-07-23T19:37:46.773Z,11.53
2018-07-23T19:40:15.188Z,17.60
2018-07-23T19:42:43.693Z,5.67
2018-07-23T19:45:12.122Z,15.73
2018-07-23T19:47:41.630Z,40.37
2018-07-23T19:50:11.099Z,15.83
2018-07-23T19:52:39.463Z,23.23
2018-07-23T19:55:08.533Z,26.87
2018-07-23T19:57:36.875Z,28.83
2018-07-23T20:00:05.181Z,30.83
2018-07-23T20:02:33.532Z,45.07
2018-07-23T20:05:02.343Z,38.50
2018-07-23T20:07:30.711Z,56.07
2018-07-23T20:09:59.020Z,37.87
2018-07-23T20:12:27.360Z,25.30
2018-07-23T20:14:55.927Z,39.13
2018-07-23T20:17:24.750Z,18.40
2018-07-23T20:19:53.032Z,28.83
2018-07-23T20:22:21.408Z,22.20
2018-07-23T20:24:49.699Z,22.00
2018-07-23T20:27:18.144Z,9.83
2018-07-23T20:29:46.592Z,17.13
2018-07-23T20:32:14.902Z,16.10
2018-07-23T20:34:43.514Z,29.83
2018-07-23T20:37:11.867Z,17.83
2018-07-23T20:39:40.892Z,32.00
2018-07-23T20:42:09.224Z,34.50
2018-07-23T20:44:37.675Z,20.77
2018-07-23T20:47:06.496Z,12.40
2018-07-23T20:49:34.812Z,18.83
2018-07-23T20:52:03.156Z,17.70
2018-07-23T20:54:31.455Z,15.63
2018-07-23T20:56:59.809Z,11.73
2018-07-23T20:59:28.507Z,11.53
2018-07-23T21:01:56.831Z,14.83
2018-07-23T21:04:25.893Z,10.73
2018-07-23T21:06:54.204Z,14.20
2018-07-23T21:09:22.552Z,16.67
2018-07-23T21:11:50.863Z,14.03
2018-07-23T21:14:19.825Z,7.83
2018-07-23T21:16:48.148Z,13.40
2018-07-23T21:19:16.451Z,12.30
2018-07-23T21:21:44.832Z,14.90
2018-07-23T21:24:13.212Z,9.33
2018-07-23T21:26:42.244Z,12.10
2018-07-23T21:29:10.572Z,10.93
2018-07-23T21:31:39.212Z,16.80
2018-07-23T21:34:07.667Z,17.80
2018-07-23T21:36:36.022Z,22.13
2018-07-23T21:39:06.308Z,18.53
2018-07-23T21:41:34.655Z,21.63
2018-07-23T21:44:02.976Z,6.90
2018-07-23T21:46:31.349Z,8.50
2018-07-23T21:48:59.649Z,9.53
2018-07-23T21:51:27.967Z,13.73
2018-07-23T21:53:56.280Z,7.67
2018-07-23T21:56:24.592Z,8.97
2018-07-23T21:58:52.912Z,8.50
2018-07-23T22:01:21.223Z,8.10
2018-07-23T22:03:49.532Z,10.20
2018-07-23T22:06:22.245Z,18.13
2018-07-23T22:08:51.240Z,19.30
2018-07-23T22:11:19.560Z,14.23
2018-07-23T22:13:47.904Z,13.80
2018-07-23T22:16:16.244Z,29.83
2018-07-23T22:18:44.648Z,10.40
2018-07-23T22:21:13.330Z,9.40
2018-07-23T22:23:41.779Z,14.73
2018-07-23T22:26:10.140Z,11.47
2018-07-23T22:28:38.452Z,14.80
2018-07-23T22:31:07.543Z,13.47
2018-07-23T22:33:35.840Z,11.53
2018-07-23T22:36:04.195Z,14.53
2018-07-23T22:38:33.401Z,14.07
2018-07-23T22:41:01.704Z,16.97
2018-07-23T22:43:30.084Z,8.43
2018-07-23T22:45:58.360Z,9.83
2018-07-23T22:48:26.687Z,7.90
2018-07-23T22:50:55.070Z,10.60
2018-07-23T22:53:23.396Z,8.97
2018-07-23T22:55:51.697Z,11.33
2018-07-23T22:58:20.027Z,18.90
2018-07-23T23:00:48.628Z,13.20
2018-07-23T23:03:16.979Z,10.97
2018-07-23T23:05:45.333Z,9.13
2018-07-23T23:08:13.656Z,15.20
2018-07-23T23:10:42.012Z,8.93
2018-07-23T23:13:10.328Z,15.53
2018-07-23T23:15:38.636Z,12.70
2018-07-23T23:18:06.959Z,13.17
2018-07-23T23:20:35.264Z,17.33
2018-07-23T23:23:03.568Z,10.93
2018-07-23T23:25:31.873Z,17.23
2018-07-23T23:28:00.192Z,10.83
2018-07-23T23:30:28.788Z,22.40
2018-07-23T23:32:57.155Z,13.03
2018-07-23T23:35:25.447Z,11.20
2018-07-23T23:37:53.923Z,19.60
2018-07-23T23:40:22.284Z,13.07
2018-07-23T23:42:50.596Z,10.47
2018-07-23T23:45:19.548Z,15.43
2018-07-23T23:47:47.856Z,11.73
2018-07-23T23:50:16.195Z,17.87
2018-07-23T23:52:44.484Z,10.17
2018-07-23T23:55:12.892Z,16.53
2018-07-23T23:57:41.244Z,11.80
